Time;durP1;ratioP1;P1;durP2;ratioP2;P2;SDS_P1;SDS_P2;PMS_P1;PMS_P2;Temp;Humidity;BMP_temperature;BMP_pressure;BME280_temperature;BME280_humidity;BME280_pressure;Samples;Min_cycle;Max_cycle;Signal;HPM_P1;HPM_P2
2022/06/12 00:02:15;;;;;;;;;;;;;;;25.55;77.84;98472.53;5059548;28;19928;-60
2022/06/12 00:04:41;;;;;;;;;;;;;;;25.51;77.99;98479.81;5057663;28;19961;-60
2022/06/12 00:07:09;;;;;;;;;;;;;;;25.48;78.02;98477.75;5057980;28;19947;-60
2022/06/12 00:09:36;;;;;;;;;;;;;;;25.47;78.23;98476.16;5061100;28;19935;-60
2022/06/12 00:12:02;;;;;;;;;;;;;;;25.48;78.25;98476.94;5058660;28;19924;-60
2022/06/12 00:14:28;;;;;;;;;;;;;;;25.41;78.63;98472.06;5063977;28;19960;-60
2022/06/12 00:16:55;;;;;;;;;;;;;;;25.43;78.84;98478.00;5064411;28;19975;-60
2022/06/12 00:19:22;;;;;;;;;;;;;;;25.40;79.22;98480.63;5062212;28;19925;-60
2022/06/12 00:21:48;;;;;;;;;;;;;;;25.34;79.33;98471.09;5060934;28;19926;-60
2022/06/12 00:24:17;;;;;;;;;;;;;;;25.36;79.31;98475.06;5062330;28;19926;-60
2022/06/12 00:26:45;;;;;;;;;;;;;;;25.29;79.52;98465.84;5064456;28;19974;-60
2022/06/12 00:29:13;;;;;;;;;;;;;;;25.24;79.93;98472.34;5063247;28;19921;-60
2022/06/12 00:31:42;;;;;;;;;;;;;;;25.12;80.12;98464.19;5060846;28;19925;-60
2022/06/12 00:34:12;;;;;;;;;;;;;;;25.14;80.52;98473.63;5061314;28;19936;-60
2022/06/12 00:36:38;;;;;;;;;;;;;;;25.19;80.22;98469.88;5064249;28;19928;-60
2022/06/12 00:39:06;;;;;;;;;;;;;;;25.24;79.76;98477.81;5062984;28;20236;-60
2022/06/12 00:41:34;;;;;;;;;;;;;;;25.20;80.00;98474.19;5059782;28;19932;-60
2022/06/12 00:44:00;;;;;;;;;;;;;;;25.21;80.18;98467.56;5060430;28;19956;-60
2022/06/12 00:46:36;;;;;;;;;;;;;;;25.18;79.76;98466.34;5063353;28;19925;-60
2022/06/12 00:49:07;;;;;;;;;;;;;;;25.17;79.77;98456.53;5063272;28;19931;-60
2022/06/12 00:51:33;;;;;;;;;;;;;;;25.11;80.17;98457.13;5060455;28;19925;-60
2022/06/12 00:54:00;;;;;;;;;;;;;;;25.11;80.14;98459.84;5068829;28;19929;-60
2022/06/12 00:56:30;;;;;;;;;;;;;;;25.12;79.92;98458.72;5063681;28;19924;-60
2022/06/12 00:59:02;;;;;;;;;;;;;;;25.00;80.39;98456.81;5063725;28;19925;-60
2022/06/12 01:01:30;;;;;;;;;;;;;;;24.94;81.04;98457.38;5060539;28;19925;-60
2022/06/12 01:06:43;;;;;;;;;;;;;;;24.96;81.43;98457.81;5060149;28;19990;-61
2022/06/12 01:09:11;;;;;;;;;;;;;;;25.04;80.86;98460.41;5060685;28;20715;-59
2022/06/12 01:11:39;;;;;;;;;;;;;;;25.06;80.66;98454.63;5063570;28;19928;-59
2022/06/12 01:14:08;;;;;;;;;;;;;;;25.06;80.69;98458.16;5060789;28;19925;-59
2022/06/12 01:16:38;;;;;;;;;;;;;;;25.06;80.42;98454.63;5063442;28;19920;-59
2022/06/12 01:19:06;;;;;;;;;;;;;;;24.95;81.35;98454.28;5063231;28;20015;-59
2022/06/12 01:21:56;;;;;;;;;;;;;;;24.85;82.31;98443.06;5059943;28;19964;-59
2022/06/12 01:24:48;;;;;;;;;;;;;;;24.81;82.51;98466.69;5062463;28;19926;-59
2022/06/12 01:27:20;;;;;;;;;;;;;;;24.69;82.98;98449.19;5062031;28;19992;-60
2022/06/12 01:29:54;;;;;;;;;;;;;;;24.65;83.12;98453.72;5059600;28;20028;-60
2022/06/12 01:32:25;;;;;;;;;;;;;;;24.57;84.02;98453.84;5061917;28;19928;-59
2022/06/12 01:34:57;;;;;;;;;;;;;;;24.73;83.28;98452.00;5063057;28;19927;-59
2022/06/12 01:37:32;;;;;;;;;;;;;;;24.69;83.07;98449.19;5060744;28;19925;-59
2022/06/12 01:40:03;;;;;;;;;;;;;;;24.67;83.56;98451.44;5059418;28;19925;-59
2022/06/12 01:42:33;;;;;;;;;;;;;;;24.59;83.80;98451.56;5062733;28;20180;-59
2022/06/12 01:45:07;;;;;;;;;;;;;;;24.60;83.81;98451.19;5062666;28;20601;-59
2022/06/12 01:47:40;;;;;;;;;;;;;;;24.40;85.39;98460.31;5059184;28;19936;-59
2022/06/12 01:50:10;;;;;;;;;;;;;;;24.16;87.25;98458.34;5059432;28;19952;-59
2022/06/12 01:52:40;;;;;;;;;;;;;;;24.14;88.06;98463.34;5062796;28;19947;-60
2022/06/12 01:55:11;;;;;;;;;;;;;;;23.60;91.09;98454.41;5062106;28;19925;-60
2022/06/12 01:57:41;;;;;;;;;;;;;;;23.29;93.78;98459.44;5059131;28;19932;-60
2022/06/12 02:00:11;;;;;;;;;;;;;;;23.54;93.31;98461.19;5059483;28;20220;-60
2022/06/12 02:02:41;;;;;;;;;;;;;;;23.37;93.05;98461.28;5062478;28;19924;-60
2022/06/12 02:05:13;;;;;;;;;;;;;;;23.13;95.30;98461.16;5062046;28;19948;-60
2022/06/12 02:07:44;;;;;;;;;;;;;;;23.62;93.13;98463.03;5059113;28;19925;-60
2022/06/12 02:10:14;;;;;;;;;;;;;;;23.93;90.27;98456.31;5059422;28;19933;-60
2022/06/12 02:15:31;;;;;;;;;;;;;;;23.45;91.95;98462.38;5059254;28;19952;-60
2022/06/12 02:18:00;;;;;;;;;;;;;;;23.00;95.14;98464.91;5058831;28;19976;-60
2022/06/12 02:20:32;;;;;;;;;;;;;;;23.31;95.00;98467.25;5061981;28;19967;-60
2022/06/12 02:22:59;;;;;;;;;;;;;;;23.75;91.19;98457.63;5061252;28;19929;-60
2022/06/12 02:25:27;;;;;;;;;;;;;;;23.71;90.66;98453.97;5059342;28;19936;-60
2022/06/12 02:27:56;;;;;;;;;;;;;;;23.56;91.20;98453.47;5059085;28;19925;-60
2022/06/12 02:30:24;;;;;;;;;;;;;;;23.86;89.22;98459.59;5061443;28;19932;-59
2022/06/12 02:32:56;;;;;;;;;;;;;;;23.86;89.06;98461.53;5062147;28;19951;-59
2022/06/12 02:35:30;;;;;;;;;;;;;;;23.98;88.35;98447.94;5059253;28;20008;-59
2022/06/12 02:37:59;;;;;;;;;;;;;;;24.06;87.76;98444.28;5058876;28;20005;-59
2022/06/12 02:40:27;;;;;;;;;;;;;;;24.15;86.66;98442.28;5061664;28;19928;-59
2022/06/12 02:42:55;;;;;;;;;;;;;;;24.17;86.32;98443.53;5062199;28;19931;-59
2022/06/12 02:45:26;;;;;;;;;;;;;;;24.22;86.22;98447.19;5059788;28;19989;-59
2022/06/12 02:47:54;;;;;;;;;;;;;;;24.22;85.94;98441.75;5058662;28;19925;-59
2022/06/12 02:50:22;;;;;;;;;;;;;;;24.16;86.08;98446.63;5060647;28;19957;-59
2022/06/12 02:52:52;;;;;;;;;;;;;;;24.08;86.68;98447.47;5062188;28;19925;-60
2022/06/12 02:55:24;;;;;;;;;;;;;;;24.15;86.48;98442.28;5060222;28;19929;-59
2022/06/12 02:57:54;;;;;;;;;;;;;;;24.12;86.50;98446.50;5058738;28;19953;-59
2022/06/12 03:00:24;;;;;;;;;;;;;;;24.03;86.52;98453.97;5060681;28;19925;-59
2022/06/12 03:02:54;;;;;;;;;;;;;;;24.02;86.48;98454.28;5061925;28;19924;-59
2022/06/12 03:05:24;;;;;;;;;;;;;;;23.92;87.14;98449.28;5059888;28;19921;-59
2022/06/12 03:07:53;;;;;;;;;;;;;;;23.86;87.23;98450.63;5058403;28;19956;-61
2022/06/12 03:10:22;;;;;;;;;;;;;;;23.85;87.40;98459.94;5060173;28;19948;-59
2022/06/12 03:12:50;;;;;;;;;;;;;;;23.85;87.54;98457.22;5061812;28;19925;-59
2022/06/12 03:15:29;;;;;;;;;;;;;;;23.81;87.74;98459.81;5060208;28;19936;-59
2022/06/12 03:17:56;;;;;;;;;;;;;;;23.80;87.91;98460.16;5058138;28;19925;-59
2022/06/12 03:20:25;;;;;;;;;;;;;;;23.73;88.08;98454.44;5060560;28;19925;-59
2022/06/12 03:22:56;;;;;;;;;;;;;;;23.77;87.94;98463.56;5061913;28;19962;-59
2022/06/12 03:25:25;;;;;;;;;;;;;;;23.64;88.09;98465.44;5059402;28;20043;-59
2022/06/12 03:27:56;;;;;;;;;;;;;;;23.60;88.52;98470.75;5057998;28;20449;-59
2022/06/12 03:30:27;;;;;;;;;;;;;;;23.60;87.91;98469.94;5060497;28;19948;-59
2022/06/12 03:32:59;;;;;;;;;;;;;;;23.64;87.63;98479.84;5067956;28;20027;-59
2022/06/12 03:35:33;;;;;;;;;;;;;;;23.71;87.12;98473.84;5061050;28;19929;-59
2022/06/12 03:38:01;;;;;;;;;;;;;;;23.70;87.16;98482.38;5057885;28;19955;-59
2022/06/12 03:40:33;;;;;;;;;;;;;;;23.79;86.31;98477.66;5060999;28;19925;-59
2022/06/12 03:43:05;;;;;;;;;;;;;;;23.83;85.94;98471.16;5060323;28;19985;-59
2022/06/12 03:45:35;;;;;;;;;;;;;;;23.88;85.66;98473.69;5049419;28;19925;-59
2022/06/12 03:48:06;;;;;;;;;;;;;;;23.91;85.32;98472.22;5050686;28;19962;-59
2022/06/12 03:50:40;;;;;;;;;;;;;;;23.70;86.08;98474.19;5065177;28;19964;-59
2022/06/12 03:53:10;;;;;;;;;;;;;;;23.60;86.19;98476.22;5064775;28;19950;-59
2022/06/12 03:58:25;;;;;;;;;;;;;;;23.65;86.32;98478.72;5063947;28;20454;-59
2022/06/12 04:00:52;;;;;;;;;;;;;;;23.80;85.55;98485.47;5064849;28;19932;-59
2022/06/12 04:03:20;;;;;;;;;;;;;;;23.50;86.29;98481.25;5062962;28;19931;-59
2022/06/12 04:05:50;;;;;;;;;;;;;;;23.32;87.41;98475.13;5061519;28;19925;-59
2022/06/12 04:08:19;;;;;;;;;;;;;;;23.21;88.49;98473.13;5062870;28;19952;-59
2022/06/12 04:10:46;;;;;;;;;;;;;;;23.29;88.50;98472.25;5064786;28;20464;-59
2022/06/12 04:13:15;;;;;;;;;;;;;;;23.32;88.13;98479.78;5063553;28;19988;-59
2022/06/12 04:15:43;;;;;;;;;;;;;;;23.40;87.29;98482.47;5061231;28;19929;-59
2022/06/12 04:18:10;;;;;;;;;;;;;;;23.42;87.14;98482.94;5061753;28;19972;-58
2022/06/12 04:20:46;;;;;;;;;;;;;;;23.54;86.20;98485.72;5064530;28;19924;-59
2022/06/12 04:23:21;;;;;;;;;;;;;;;23.58;85.66;98483.13;5063500;28;19948;-59
2022/06/12 04:25:52;;;;;;;;;;;;;;;23.53;86.13;98478.66;5059972;28;19925;-59
2022/06/12 04:28:24;;;;;;;;;;;;;;;23.37;87.14;98483.09;5062898;28;19925;-59
2022/06/12 04:30:50;;;;;;;;;;;;;;;23.41;87.32;98475.88;5064281;28;19924;-60
2022/06/12 04:33:23;;;;;;;;;;;;;;;23.56;86.61;98483.44;5062720;28;19924;-59
2022/06/12 04:35:51;;;;;;;;;;;;;;;23.65;86.36;98478.72;5060779;28;19929;-59
2022/06/12 04:38:19;;;;;;;;;;;;;;;23.64;86.31;98487.25;5062322;28;19961;-61
2022/06/12 04:40:45;;;;;;;;;;;;;;;23.66;86.52;98479.53;5064046;28;19929;-60
2022/06/12 04:43:12;;;;;;;;;;;;;;;23.65;86.37;98478.72;5063102;28;19931;-59
2022/06/12 04:45:39;;;;;;;;;;;;;;;23.65;86.65;98477.91;5060507;28;20004;-59
2022/06/12 04:48:06;;;;;;;;;;;;;;;23.67;86.87;98485.78;5060568;28;19960;-60
2022/06/12 04:50:33;;;;;;;;;;;;;;;23.58;87.56;98483.91;5060558;28;19932;-59
2022/06/12 04:52:59;;;;;;;;;;;;;;;23.59;87.63;98482.78;5060357;28;20404;-60
2022/06/12 04:55:27;;;;;;;;;;;;;;;23.38;88.57;98481.97;5063273;28;19975;-59
2022/06/12 04:57:53;;;;;;;;;;;;;;;23.37;89.36;98479.56;5063786;28;19924;-59
2022/06/12 05:00:20;;;;;;;;;;;;;;;23.46;89.17;98472.16;5061456;28;19924;-60
2022/06/12 05:02:46;;;;;;;;;;;;;;;23.39;89.96;98478.16;5060316;28;20024;-60
2022/06/12 05:05:12;;;;;;;;;;;;;;;23.09;92.49;98482.81;5061367;28;19925;-60
2022/06/12 05:07:39;;;;;;;;;;;;;;;23.13;92.45;98485.66;5063900;28;19925;-60
2022/06/12 05:10:06;;;;;;;;;;;;;;;23.22;91.66;98485.59;5063858;28;19929;-60
2022/06/12 05:12:34;;;;;;;;;;;;;;;23.04;93.74;98493.91;5061371;28;19932;-60
2022/06/12 05:15:00;;;;;;;;;;;;;;;23.11;93.64;98491.47;5063599;28;19932;-60
2022/06/12 05:17:27;;;;;;;;;;;;;;;22.97;94.46;98490.91;5060796;28;19944;-60
2022/06/12 05:19:53;;;;;;;;;;;;;;;22.96;95.14;98486.56;5059909;28;20024;-59
2022/06/12 05:22:22;;;;;;;;;;;;;;;22.83;96.97;98484.91;5061773;28;19925;-59
2022/06/12 05:24:48;;;;;;;;;;;;;;;22.41;100.00;98483.94;5063266;28;20284;-59
2022/06/12 05:27:17;;;;;;;;;;;;;;;22.53;100.00;98481.31;5062091;28;20029;-59
2022/06/12 05:29:45;;;;;;;;;;;;;;;23.13;94.96;98477.50;5059834;28;19957;-59
2022/06/12 05:32:13;;;;;;;;;;;;;;;23.32;93.62;98479.78;5060479;28;19965;-59
2022/06/12 05:34:39;;;;;;;;;;;;;;;23.57;93.37;98476.88;5063209;28;19925;-57
2022/06/12 05:37:06;;;;;;;;;;;;;;;23.69;91.47;98473.41;5063002;28;19925;-60
2022/06/12 05:39:32;;;;;;;;;;;;;;;23.68;92.49;98477.25;5059555;28;19987;-59
2022/06/12 05:41:59;;;;;;;;;;;;;;;23.95;90.83;98482.13;5059369;28;19927;-60
2022/06/12 05:44:25;;;;;;;;;;;;;;;24.13;89.28;98475.41;5062261;28;20180;-60
2022/06/12 05:46:53;;;;;;;;;;;;;;;24.25;89.24;98474.63;5062878;28;19929;-60
2022/06/12 05:49:19;;;;;;;;;;;;;;;24.46;89.27;98480.78;5061141;28;19960;-61
2022/06/12 05:51:46;;;;;;;;;;;;;;;24.36;89.39;98475.75;5059210;28;19988;-61
2022/06/12 05:54:12;;;;;;;;;;;;;;;24.02;93.35;98478.84;5060155;28;19925;-61
2022/06/12 05:56:39;;;;;;;;;;;;;;;23.55;96.94;98476.38;5062707;28;19932;-61
2022/06/12 05:59:06;;;;;;;;;;;;;;;23.56;98.06;98474.47;5062542;28;19947;-61
2022/06/12 06:01:32;;;;;;;;;;;;;;;22.77;100.00;98469.06;5059087;28;19932;-61
2022/06/12 06:04:00;;;;;;;;;;;;;;;22.57;100.00;98476.81;5059084;28;19947;-60
2022/06/12 06:06:29;;;;;;;;;;;;;;;22.47;100.00;98477.19;5062129;28;19920;-61
2022/06/12 06:08:55;;;;;;;;;;;;;;;22.64;100.00;98473.59;5062609;28;19932;-61
2022/06/12 06:11:22;;;;;;;;;;;;;;;23.23;100.00;98471.66;5059440;28;20004;-60
2022/06/12 06:13:48;;;;;;;;;;;;;;;23.50;100.00;98471.16;5057816;28;19921;-60
2022/06/12 06:16:15;;;;;;;;;;;;;;;23.03;100.00;98464.25;5060210;28;20398;-60
2022/06/12 06:18:41;;;;;;;;;;;;;;;22.85;100.00;98468.22;5062487;28;20264;-60
2022/06/12 06:21:11;;;;;;;;;;;;;;;23.04;100.00;98474.03;5061911;28;19925;-60
2022/06/12 06:23:37;;;;;;;;;;;;;;;23.40;100.00;98478.94;5059020;28;19925;-60
2022/06/12 06:26:04;;;;;;;;;;;;;;;23.67;100.00;98479.19;5058910;28;19948;-60
2022/06/12 06:28:31;;;;;;;;;;;;;;;23.96;98.37;98477.47;5062246;28;19932;-61
2022/06/12 06:30:57;;;;;;;;;;;;;;;23.88;99.17;98472.91;5062123;28;19925;-60
2022/06/12 06:33:24;;;;;;;;;;;;;;;23.90;98.55;98473.34;5059642;28;20369;-59
2022/06/12 06:35:51;;;;;;;;;;;;;;;24.33;96.54;98475.63;5058515;28;20320;-60
2022/06/12 06:38:19;;;;;;;;;;;;;;;24.35;96.40;98484.31;5060215;28;19993;-61
2022/06/12 06:40:46;;;;;;;;;;;;;;;24.31;97.62;98478.72;5062037;28;19960;-59
2022/06/12 06:43:12;;;;;;;;;;;;;;;24.29;98.37;98481.00;5060844;28;19925;-59
2022/06/12 06:48:24;;;;;;;;;;;;;;;24.08;100.00;98486.47;5064466;28;19924;-59
2022/06/12 06:50:50;;;;;;;;;;;;;;;23.92;100.00;98474.59;5066590;28;19951;-59
2022/06/12 06:53:18;;;;;;;;;;;;;;;23.93;100.00;98478.13;5067064;28;19925;-59
2022/06/12 06:55:45;;;;;;;;;;;;;;;24.11;100.00;98480.38;5067054;28;20011;-60
2022/06/12 06:58:13;;;;;;;;;;;;;;;24.50;99.59;98476.25;5068464;28;19924;-60
2022/06/12 07:00:41;;;;;;;;;;;;;;;24.76;97.29;98477.84;5063235;28;19925;-60
2022/06/12 07:03:08;;;;;;;;;;;;;;;25.08;94.86;98479.66;5058407;28;19959;-59
2022/06/12 07:05:35;;;;;;;;;;;;;;;25.41;92.66;98483.00;5061603;28;19925;-59
2022/06/12 07:08:02;;;;;;;;;;;;;;;25.28;93.02;98476.00;5061669;28;19925;-59
2022/06/12 07:10:31;;;;;;;;;;;;;;;25.03;94.51;98468.97;5058558;28;19932;-60
2022/06/12 07:12:58;;;;;;;;;;;;;;;25.01;93.74;98468.50;5065192;28;19921;-59
2022/06/12 07:15:25;;;;;;;;;;;;;;;24.90;96.29;98464.66;5058988;28;19948;-60
2022/06/12 07:17:53;;;;;;;;;;;;;;;24.83;95.13;98462.50;5057903;28;19925;-60
2022/06/12 07:20:21;;;;;;;;;;;;;;;25.01;94.53;98463.03;5060033;28;20004;-60
2022/06/12 07:22:47;;;;;;;;;;;;;;;25.55;89.10;98471.72;5063741;28;19931;-59
2022/06/12 07:25:14;;;;;;;;;;;;;;;25.88;88.26;98474.19;5064357;28;19978;-60
2022/06/12 07:27:42;;;;;;;;;;;;;;;25.56;88.57;98474.09;5062075;28;19970;-59
2022/06/12 07:30:10;;;;;;;;;;;;;;;25.33;89.90;98474.94;5062416;28;19929;-60
2022/06/12 07:32:37;;;;;;;;;;;;;;;24.74;93.88;98467.25;5065423;28;19925;-60
2022/06/12 07:35:05;;;;;;;;;;;;;;;24.60;97.17;98464.84;5064462;28;20507;-60
2022/06/12 07:37:32;;;;;;;;;;;;;;;25.02;95.36;98464.66;5062144;28;19925;-60
2022/06/12 07:40:00;;;;;;;;;;;;;;;24.79;95.82;98463.50;5061826;28;19925;-60
2022/06/12 07:42:26;;;;;;;;;;;;;;;24.89;95.96;98466.59;5064558;28;19928;-59
2022/06/12 07:44:54;;;;;;;;;;;;;;;25.36;92.21;98475.06;5065080;28;19960;-60
2022/06/12 07:47:20;;;;;;;;;;;;;;;25.29;93.64;98463.91;5063063;28;19921;-60
2022/06/12 07:49:47;;;;;;;;;;;;;;;25.11;94.06;98462.59;5061933;28;19925;-60
2022/06/12 07:52:15;;;;;;;;;;;;;;;24.69;97.47;98454.63;5062579;28;19948;-59
2022/06/12 07:54:41;;;;;;;;;;;;;;;24.32;100.00;98458.50;5065250;28;19924;-60
2022/06/12 07:57:08;;;;;;;;;;;;;;;24.55;99.33;98459.63;5064737;28;19947;-60
2022/06/12 07:59:34;;;;;;;;;;;;;;;24.35;100.00;98466.00;5061340;28;19925;-60
2022/06/12 08:02:02;;;;;;;;;;;;;;;24.39;99.55;98466.09;5061297;28;19960;-60
2022/06/12 08:04:29;;;;;;;;;;;;;;;25.05;97.10;98458.50;5064443;28;19932;-60
2022/06/12 08:06:56;;;;;;;;;;;;;;;24.98;96.39;98450.06;5064500;28;19988;-60
2022/06/12 08:09:23;;;;;;;;;;;;;;;25.24;95.22;98455.94;5062327;28;19925;-60
2022/06/12 08:11:50;;;;;;;;;;;;;;;25.13;94.94;98455.63;5061467;28;19944;-60
2022/06/12 08:14:18;;;;;;;;;;;;;;;25.29;94.12;98455.69;5064672;28;19926;-60
2022/06/12 08:16:44;;;;;;;;;;;;;;;25.01;94.73;98447.44;5064716;28;20071;-60
2022/06/12 08:21:57;;;;;;;;;;;;;;;25.31;95.19;98455.38;5061028;28;19925;-60
2022/06/12 08:24:24;;;;;;;;;;;;;;;25.37;93.69;98459.44;5063458;28;19932;-60
2022/06/12 08:26:50;;;;;;;;;;;;;;;25.33;92.66;98464.00;5064251;28;19925;-60
2022/06/12 08:29:16;;;;;;;;;;;;;;;25.73;91.00;98457.41;5063005;28;19925;-60
2022/06/12 08:31:44;;;;;;;;;;;;;;;25.31;91.06;98458.91;5060844;28;19925;-60
2022/06/12 08:34:13;;;;;;;;;;;;;;;24.83;94.57;98453.50;5060451;28;19921;-60
2022/06/12 08:36:40;;;;;;;;;;;;;;;25.07;95.71;98453.47;5064223;28;19925;-60
2022/06/12 08:39:07;;;;;;;;;;;;;;;25.30;90.77;98451.84;5064051;28;19938;-60
2022/06/12 08:41:36;;;;;;;;;;;;;;;25.72;90.22;98458.53;5060660;28;19925;-60
2022/06/12 08:44:05;;;;;;;;;;;;;;;25.94;89.88;98445.44;5060387;28;19929;-60
2022/06/12 08:46:36;;;;;;;;;;;;;;;26.01;89.80;98446.44;5051930;28;19925;-60
2022/06/12 08:49:07;;;;;;;;;;;;;;;26.61;86.32;98437.03;5052096;28;19929;-60
2022/06/12 08:51:41;;;;;;;;;;;;;;;26.28;85.37;98445.59;5052239;28;19928;-60
2022/06/12 08:54:11;;;;;;;;;;;;;;;25.72;88.54;98436.66;5060414;28;19974;-61
2022/06/12 08:56:42;;;;;;;;;;;;;;;25.82;88.63;98438.09;5063897;28;19924;-61
2022/06/12 08:59:12;;;;;;;;;;;;;;;25.63;91.14;98438.75;5063422;28;19929;-61
2022/06/12 09:01:42;;;;;;;;;;;;;;;26.26;88.23;98427.94;5060471;28;19925;-60
2022/06/12 09:04:09;;;;;;;;;;;;;;;26.11;88.44;98426.75;5060571;28;19929;-60
2022/06/12 09:06:41;;;;;;;;;;;;;;;26.07;89.79;98414.91;5063708;28;19932;-60
2022/06/12 09:09:14;;;;;;;;;;;;;;;26.35;88.43;98419.53;5063389;28;19997;-60
2022/06/12 09:11:43;;;;;;;;;;;;;;;27.11;83.97;98411.56;5060057;28;19955;-60
2022/06/12 09:14:16;;;;;;;;;;;;;;;26.60;84.40;98408.03;5063427;28;20562;-60
2022/06/12 09:16:48;;;;;;;;;;;;;;;26.49;86.46;98412.44;5063437;28;20569;-60
2022/06/12 09:19:21;;;;;;;;;;;;;;;26.55;86.34;98400.09;5062217;28;19924;-60
2022/06/12 09:21:54;;;;;;;;;;;;;;;26.51;85.46;98392.94;5059828;28;19925;-60
2022/06/12 09:24:28;;;;;;;;;;;;;;;26.31;81.56;98392.06;5061730;28;19924;-60
2022/06/12 09:26:58;;;;;;;;;;;;;;;26.79;83.62;98390.84;5062127;28;19964;-60
2022/06/12 09:29:31;;;;;;;;;;;;;;;27.36;79.86;98387.38;5060822;28;19972;-60
2022/06/12 09:32:02;;;;;;;;;;;;;;;26.83;78.30;98386.28;5059544;28;19926;-60
2022/06/12 09:34:33;;;;;;;;;;;;;;;26.73;72.81;98384.88;5062669;28;19932;-60
2022/06/12 09:39:54;;;;;;;;;;;;;;;26.65;71.71;98368.59;5050941;28;19925;-61
2022/06/12 09:42:23;;;;;;;;;;;;;;;26.66;71.62;98370.19;5052882;28;19932;-59
2022/06/12 09:44:52;;;;;;;;;;;;;;;26.83;71.95;98369.03;5062642;28;19924;-59
2022/06/12 09:47:25;;;;;;;;;;;;;;;27.45;70.38;98377.00;5060951;28;19924;-59
2022/06/12 09:49:59;;;;;;;;;;;;;;;27.34;60.65;98373.25;5059284;28;19935;-60
2022/06/12 09:52:41;;;;;;;;;;;;;;;27.57;60.08;98370.59;5061950;28;19925;-61
2022/06/12 09:55:12;;;;;;;;;;;;;;;27.72;59.15;98365.00;5062419;28;19925;-61
2022/06/12 09:57:44;;;;;;;;;;;;;;;28.29;57.82;98372.28;5059194;28;20024;-60
2022/06/12 10:00:16;;;;;;;;;;;;;;;28.45;57.47;98372.13;5059552;28;20356;-60
2022/06/12 10:02:47;;;;;;;;;;;;;;;28.51;56.83;98365.16;5062417;28;19960;-60
2022/06/12 10:05:15;;;;;;;;;;;;;;;28.71;57.25;98365.88;5061398;28;19996;-60
2022/06/12 10:07:46;;;;;;;;;;;;;;;28.61;55.49;98355.50;5059069;28;19925;-60
2022/06/12 10:10:17;;;;;;;;;;;;;;;29.05;54.54;98356.53;5059764;28;19947;-61
2022/06/12 10:12:45;;;;;;;;;;;;;;;29.23;53.53;98356.75;5065347;28;19947;-61
2022/06/12 10:15:14;;;;;;;;;;;;;;;29.29;52.49;98361.56;5061690;28;19932;-60
2022/06/12 10:17:45;;;;;;;;;;;;;;;29.30;49.88;98340.34;5061840;28;19921;-60
2022/06/12 10:20:14;;;;;;;;;;;;;;;29.15;52.34;98347.63;5062158;28;19925;-60
2022/06/12 10:22:43;;;;;;;;;;;;;;;29.29;51.71;98342.31;5062309;28;20216;-61
2022/06/12 10:25:16;;;;;;;;;;;;;;;29.48;51.19;98340.56;5061537;28;19924;-60
2022/06/12 10:27:45;;;;;;;;;;;;;;;29.53;50.87;98349.25;5058594;28;19925;-61
2022/06/12 10:30:23;;;;;;;;;;;;;;;29.46;50.62;98336.19;5059278;28;19925;-60
2022/06/12 10:32:52;;;;;;;;;;;;;;;29.56;51.56;98337.50;5062026;28;19925;-60
2022/06/12 10:35:19;;;;;;;;;;;;;;;29.55;50.87;98335.13;5060730;28;19966;-60
2022/06/12 10:37:46;;;;;;;;;;;;;;;29.64;50.35;98335.63;5058532;28;19935;-60
2022/06/12 10:40:16;;;;;;;;;;;;;;;29.59;51.16;98320.22;5059422;28;19984;-60
2022/06/12 10:42:45;;;;;;;;;;;;;;;29.70;51.01;98318.38;5061779;28;19987;-60
2022/06/12 10:45:20;;;;;;;;;;;;;;;29.82;48.09;98326.38;5060661;28;20011;-60
2022/06/12 10:47:47;;;;;;;;;;;;;;;29.49;49.25;98320.13;5058088;28;19925;-61
2022/06/12 10:50:23;;;;;;;;;;;;;;;29.54;50.39;98323.31;5059083;28;19922;-61
2022/06/12 10:52:51;;;;;;;;;;;;;;;29.63;49.75;98318.31;5061441;28;19920;-60
2022/06/12 10:55:21;;;;;;;;;;;;;;;29.66;50.04;98317.53;5060054;28;19921;-60
2022/06/12 10:57:50;;;;;;;;;;;;;;;29.79;50.38;98313.34;5057671;28;19926;-60
2022/06/12 11:00:19;;;;;;;;;;;;;;;29.67;50.18;98310.09;5058147;28;19979;-60
2022/06/12 11:02:53;;;;;;;;;;;;;;;29.80;49.58;98303.91;5061263;28;19969;-60
2022/06/12 11:05:40;;;;;;;;;;;;;;;29.73;49.67;98300.31;5059668;28;19988;-60
2022/06/12 11:08:12;;;;;;;;;;;;;;;29.72;50.29;98299.50;5032207;28;19932;-60
2022/06/12 11:10:45;;;;;;;;;;;;;;;29.84;49.96;98291.00;5061676;28;19924;-60
2022/06/12 11:13:19;;;;;;;;;;;;;;;29.76;49.49;98294.84;5063604;28;19925;-60
2022/06/12 11:15:56;;;;;;;;;;;;;;;29.80;49.66;98290.13;5058127;28;19935;-60
2022/06/12 11:18:25;;;;;;;;;;;;;;;29.79;49.64;98291.31;5059982;28;19926;-60
2022/06/12 11:20:57;;;;;;;;;;;;;;;29.65;49.36;98282.91;5060064;28;19925;-60
2022/06/12 11:23:42;;;;;;;;;;;;;;;29.85;48.43;98278.03;5059078;28;19925;-60
2022/06/12 11:26:16;;;;;;;;;;;;;;;29.80;49.26;98272.84;5058127;28;19935;-60
2022/06/12 11:28:49;;;;;;;;;;;;;;;29.79;49.88;98277.56;5061446;28;19925;-60
2022/06/12 11:31:23;;;;;;;;;;;;;;;29.95;49.36;98277.31;5060021;28;19968;-65
2022/06/12 11:33:58;;;;;;;;;;;;;;;29.98;47.35;98260.03;5058010;28;20015;-61
2022/06/12 11:36:28;;;;;;;;;;;;;;;29.84;51.43;98266.22;5060477;28;19929;-61
2022/06/12 11:39:09;;;;;;;;;;;;;;;29.85;49.75;98262.28;5061490;28;19991;-61
2022/06/12 11:41:43;;;;;;;;;;;;;;;29.93;49.75;98255.66;5040833;28;20550;-61
2022/06/12 11:44:19;;;;;;;;;;;;;;;29.80;50.17;98262.59;5059799;28;19929;-61
2022/06/12 11:46:46;;;;;;;;;;;;;;;29.87;48.98;98256.38;5061171;28;20030;-61
2022/06/12 11:49:25;;;;;;;;;;;;;;;29.77;48.18;98254.34;5060549;28;19929;-61
2022/06/12 11:51:55;;;;;;;;;;;;;;;29.91;46.46;98246.19;5057784;28;19932;-61
2022/06/12 11:54:34;;;;;;;;;;;;;;;29.91;49.11;98243.44;5059781;28;19925;-61
2022/06/12 11:57:08;;;;;;;;;;;;;;;29.69;49.49;98245.22;5060101;28;19925;-61
2022/06/12 11:59:38;;;;;;;;;;;;;;;29.69;49.16;98236.16;5057870;28;19951;-61
2022/06/12 12:02:09;;;;;;;;;;;;;;;29.92;47.30;98240.31;5057586;28;19925;-61
2022/06/12 12:04:50;;;;;;;;;;;;;;;29.85;48.44;98232.00;5057579;28;19929;-61
2022/06/12 12:07:23;;;;;;;;;;;;;;;29.80;49.06;98229.56;5014993;28;19925;-61
2022/06/12 12:09:58;;;;;;;;;;;;;;;29.86;48.45;98222.59;5063114;28;19924;-61
2022/06/12 12:12:29;;;;;;;;;;;;;;;29.76;49.80;98219.72;5064392;28;19929;-61
2022/06/12 12:14:57;;;;;;;;;;;;;;;29.88;49.25;98220.22;5064698;28;20492;-61
2022/06/12 12:17:26;;;;;;;;;;;;;;;29.95;49.08;98220.28;5062312;28;19924;-61
2022/06/12 12:19:54;;;;;;;;;;;;;;;29.81;49.35;98214.63;5061127;28;19925;-61
2022/06/12 12:22:28;;;;;;;;;;;;;;;29.84;48.89;98216.66;5062980;28;19925;-61
2022/06/12 12:24:56;;;;;;;;;;;;;;;29.85;48.92;98209.19;5064542;28;19925;-61
2022/06/12 12:27:27;;;;;;;;;;;;;;;29.81;48.82;98203.63;5062282;28;19927;-61
2022/06/12 12:29:56;;;;;;;;;;;;;;;29.93;48.26;98197.81;5060870;28;19925;-61
2022/06/12 12:32:22;;;;;;;;;;;;;;;30.02;47.44;98207.72;5062920;28;19921;-61
2022/06/12 12:34:50;;;;;;;;;;;;;;;29.97;48.85;98201.41;5064128;28;19925;-61
2022/06/12 12:43:00;;;;;;;;;;;;;;;29.85;48.60;98181.66;5008420;28;19922;-61
2022/06/12 12:45:30;;;;;;;;;;;;;;;29.61;49.65;98194.03;5061005;28;19928;-61
2022/06/12 12:48:00;;;;;;;;;;;;;;;29.62;49.27;98198.34;5060458;28;19943;-60
2022/06/12 12:50:27;;;;;;;;;;;;;;;29.62;48.78;98192.84;5063198;28;20010;-60
2022/06/12 12:52:57;;;;;;;;;;;;;;;29.95;45.89;98191.94;5063772;28;19932;-61
2022/06/12 12:55:25;;;;;;;;;;;;;;;30.07;45.39;98188.09;5061514;28;19924;-61
2022/06/12 12:57:53;;;;;;;;;;;;;;;30.03;46.73;98192.75;5060284;28;19925;-61
2022/06/12 13:00:25;;;;;;;;;;;;;;;30.05;47.55;98184.94;5061902;28;19932;-61
2022/06/12 13:02:56;;;;;;;;;;;;;;;30.27;46.87;98179.13;5063627;28;19992;-59
2022/06/12 13:05:25;;;;;;;;;;;;;;;30.30;45.98;98177.56;5061576;28;19948;-59
2022/06/12 13:07:59;;;;;;;;;;;;;;;29.92;48.04;98176.19;5060253;28;19953;-60
2022/06/12 13:10:35;;;;;;;;;;;;;;;29.67;48.98;98183.47;5062659;28;19932;-60
2022/06/12 13:13:13;;;;;;;;;;;;;;;29.93;48.55;98184.06;5066505;28;19956;-60
2022/06/12 13:15:45;;;;;;;;;;;;;;;30.02;44.58;98171.94;5060348;28;19925;-60
2022/06/12 13:18:20;;;;;;;;;;;;;;;29.83;46.31;98162.75;5060843;28;19972;-60
2022/06/12 13:20:55;;;;;;;;;;;;;;;29.88;45.58;98158.84;5063159;28;19933;-61